sensor_id;sensor_type;location;lat;lon;timestamp;temperature;humidity
41722;DHT22;27407;24.142;-110.310;2023-05-14T00:02:09;35.30;61.00
41722;DHT22;27407;24.142;-110.310;2023-05-14T00:04:36;35.50;60.70
41722;DHT22;27407;24.142;-110.310;2023-05-14T00:07:03;35.90;60.10
41722;DHT22;27407;24.142;-110.310;2023-05-14T00:09:30;35.80;60.20
41722;DHT22;27407;24.142;-110.310;2023-05-14T00:11:57;35.70;60.20
41722;DHT22;27407;24.142;-110.310;2023-05-14T00:14:24;35.00;60.90
41722;DHT22;27407;24.142;-110.310;2023-05-14T00:16:50;34.90;61.80
41722;DHT22;27407;24.142;-110.310;2023-05-14T00:19:17;35.30;61.00
41722;DHT22;27407;24.142;-110.310;2023-05-14T00:21:43;35.60;60.20
41722;DHT22;27407;24.142;-110.310;2023-05-14T00:24:10;35.90;60.00
41722;DHT22;27407;24.142;-110.310;2023-05-14T00:26:37;35.80;59.90
41722;DHT22;27407;24.142;-110.310;2023-05-14T00:29:03;35.90;60.30
41722;DHT22;27407;24.142;-110.310;2023-05-14T00:31:30;35.60;60.40
41722;DHT22;27407;24.142;-110.310;2023-05-14T00:33:57;34.80;61.80
41722;DHT22;27407;24.142;-110.310;2023-05-14T00:36:23;35.10;61.20
41722;DHT22;27407;24.142;-110.310;2023-05-14T00:38:57;35.10;60.80
41722;DHT22;27407;24.142;-110.310;2023-05-14T00:41:24;35.10;60.80
41722;DHT22;27407;24.142;-110.310;2023-05-14T00:43:50;34.90;60.80
41722;DHT22;27407;24.142;-110.310;2023-05-14T00:46:17;35.20;60.50
41722;DHT22;27407;24.142;-110.310;2023-05-14T00:48:44;35.00;60.80
41722;DHT22;27407;24.142;-110.310;2023-05-14T00:51:11;34.90;60.80
41722;DHT22;27407;24.142;-110.310;2023-05-14T00:53:37;34.70;61.30
41722;DHT22;27407;24.142;-110.310;2023-05-14T00:56:05;34.50;61.80
41722;DHT22;27407;24.142;-110.310;2023-05-14T00:58:33;34.30;61.60
41722;DHT22;27407;24.142;-110.310;2023-05-14T01:01:00;34.40;62.30
41722;DHT22;27407;24.142;-110.310;2023-05-14T01:03:27;33.90;62.80
41722;DHT22;27407;24.142;-110.310;2023-05-14T01:06:12;33.60;63.30
41722;DHT22;27407;24.142;-110.310;2023-05-14T01:09:14;33.10;64.20
41722;DHT22;27407;24.142;-110.310;2023-05-14T01:17:37;32.10;65.90
41722;DHT22;27407;24.142;-110.310;2023-05-14T01:20:05;31.90;66.80
41722;DHT22;27407;24.142;-110.310;2023-05-14T01:22:32;31.40;67.80
41722;DHT22;27407;24.142;-110.310;2023-05-14T01:24:58;30.90;68.60
41722;DHT22;27407;24.142;-110.310;2023-05-14T01:30:02;30.10;69.70
41722;DHT22;27407;24.142;-110.310;2023-05-14T01:32:31;30.00;69.80
41722;DHT22;27407;24.142;-110.310;2023-05-14T01:35:00;29.50;70.10
41722;DHT22;27407;24.142;-110.310;2023-05-14T01:37:27;29.20;71.00
41722;DHT22;27407;24.142;-110.310;2023-05-14T01:39:55;28.90;71.00
41722;DHT22;27407;24.142;-110.310;2023-05-14T01:42:23;28.80;71.60
41722;DHT22;27407;24.142;-110.310;2023-05-14T01:44:51;28.30;72.20
41722;DHT22;27407;24.142;-110.310;2023-05-14T01:47:17;27.80;73.00
41722;DHT22;27407;24.142;-110.310;2023-05-14T01:49:44;27.60;73.60
41722;DHT22;27407;24.142;-110.310;2023-05-14T01:52:11;27.50;73.80
41722;DHT22;27407;24.142;-110.310;2023-05-14T01:54:37;27.50;73.20
41722;DHT22;27407;24.142;-110.310;2023-05-14T01:57:04;27.20;73.30
41722;DHT22;27407;24.142;-110.310;2023-05-14T01:59:31;26.90;73.50
41722;DHT22;27407;24.142;-110.310;2023-05-14T02:01:57;26.80;74.10
41722;DHT22;27407;24.142;-110.310;2023-05-14T02:04:24;26.70;73.70
41722;DHT22;27407;24.142;-110.310;2023-05-14T02:06:50;26.50;74.10
41722;DHT22;27407;24.142;-110.310;2023-05-14T02:09:17;26.50;74.40
41722;DHT22;27407;24.142;-110.310;2023-05-14T02:11:44;26.30;75.10
41722;DHT22;27407;24.142;-110.310;2023-05-14T02:14:10;26.30;76.10
41722;DHT22;27407;24.142;-110.310;2023-05-14T02:16:37;26.30;76.60
41722;DHT22;27407;24.142;-110.310;2023-05-14T02:19:04;26.10;77.70
41722;DHT22;27407;24.142;-110.310;2023-05-14T02:21:31;25.80;78.60
41722;DHT22;27407;24.142;-110.310;2023-05-14T02:23:58;25.70;78.80
41722;DHT22;27407;24.142;-110.310;2023-05-14T02:26:24;25.70;79.30
41722;DHT22;27407;24.142;-110.310;2023-05-14T02:28:51;25.70;79.50
41722;DHT22;27407;24.142;-110.310;2023-05-14T02:31:18;25.90;80.40
41722;DHT22;27407;24.142;-110.310;2023-05-14T02:33:44;25.60;80.40
41722;DHT22;27407;24.142;-110.310;2023-05-14T02:36:11;25.30;81.40
41722;DHT22;27407;24.142;-110.310;2023-05-14T02:38:38;25.20;82.30
41722;DHT22;27407;24.142;-110.310;2023-05-14T02:41:05;25.30;82.90
41722;DHT22;27407;24.142;-110.310;2023-05-14T02:43:31;25.10;83.50
41722;DHT22;27407;24.142;-110.310;2023-05-14T02:45:58;25.00;84.30
41722;DHT22;27407;24.142;-110.310;2023-05-14T02:48:25;25.00;85.00
41722;DHT22;27407;24.142;-110.310;2023-05-14T02:50:51;24.90;85.50
41722;DHT22;27407;24.142;-110.310;2023-05-14T02:53:18;24.70;86.30
41722;DHT22;27407;24.142;-110.310;2023-05-14T02:55:45;24.50;87.80
41722;DHT22;27407;24.142;-110.310;2023-05-14T02:58:11;24.20;89.30
41722;DHT22;27407;24.142;-110.310;2023-05-14T03:00:38;24.10;90.10
41722;DHT22;27407;24.142;-110.310;2023-05-14T03:03:05;24.10;90.50
41722;DHT22;27407;24.142;-110.310;2023-05-14T03:05:31;23.90;91.20
41722;DHT22;27407;24.142;-110.310;2023-05-14T03:07:59;23.70;91.70
41722;DHT22;27407;24.142;-110.310;2023-05-14T03:10:26;23.50;92.30
41722;DHT22;27407;24.142;-110.310;2023-05-14T03:12:52;23.30;93.00
41722;DHT22;27407;24.142;-110.310;2023-05-14T03:15:19;23.20;93.60
41722;DHT22;27407;24.142;-110.310;2023-05-14T03:17:45;23.20;94.10
41722;DHT22;27407;24.142;-110.310;2023-05-14T03:20:12;23.00;94.90
41722;DHT22;27407;24.142;-110.310;2023-05-14T03:22:39;22.90;95.70
41722;DHT22;27407;24.142;-110.310;2023-05-14T03:25:06;22.80;96.80
41722;DHT22;27407;24.142;-110.310;2023-05-14T03:27:33;22.60;98.10
41722;DHT22;27407;24.142;-110.310;2023-05-14T03:29:59;22.40;99.80
41722;DHT22;27407;24.142;-110.310;2023-05-14T03:32:26;22.10;99.90
41722;DHT22;27407;24.142;-110.310;2023-05-14T03:34:53;22.10;99.90
41722;DHT22;27407;24.142;-110.310;2023-05-14T03:37:20;22.00;99.90
41722;DHT22;27407;24.142;-110.310;2023-05-14T03:39:46;22.00;99.90
41722;DHT22;27407;24.142;-110.310;2023-05-14T03:42:13;22.00;99.90
41722;DHT22;27407;24.142;-110.310;2023-05-14T03:44:39;21.90;99.90
41722;DHT22;27407;24.142;-110.310;2023-05-14T03:47:06;21.80;99.90
41722;DHT22;27407;24.142;-110.310;2023-05-14T03:49:33;21.70;99.90
41722;DHT22;27407;24.142;-110.310;2023-05-14T03:52:00;21.50;99.90
41722;DHT22;27407;24.142;-110.310;2023-05-14T03:54:26;21.20;99.90
41722;DHT22;27407;24.142;-110.310;2023-05-14T03:56:53;21.40;99.90
41722;DHT22;27407;24.142;-110.310;2023-05-14T03:59:20;21.40;99.90
41722;DHT22;27407;24.142;-110.310;2023-05-14T04:01:46;21.60;99.90
41722;DHT22;27407;24.142;-110.310;2023-05-14T04:04:13;21.20;99.90
41722;DHT22;27407;24.142;-110.310;2023-05-14T04:06:40;21.00;99.90
41722;DHT22;27407;24.142;-110.310;2023-05-14T04:09:06;20.90;99.90
41722;DHT22;27407;24.142;-110.310;2023-05-14T04:11:33;20.90;99.90
41722;DHT22;27407;24.142;-110.310;2023-05-14T04:14:00;21.20;99.90
41722;DHT22;27407;24.142;-110.310;2023-05-14T04:16:26;21.00;99.90
41722;DHT22;27407;24.142;-110.310;2023-05-14T04:18:53;21.00;99.90
41722;DHT22;27407;24.142;-110.310;2023-05-14T04:21:20;21.10;99.90
41722;DHT22;27407;24.142;-110.310;2023-05-14T04:23:46;20.70;99.90
41722;DHT22;27407;24.142;-110.310;2023-05-14T04:26:13;20.70;99.90
41722;DHT22;27407;24.142;-110.310;2023-05-14T04:28:39;20.60;99.90
41722;DHT22;27407;24.142;-110.310;2023-05-14T04:31:06;20.40;99.90
41722;DHT22;27407;24.142;-110.310;2023-05-14T04:33:33;20.50;99.90
41722;DHT22;27407;24.142;-110.310;2023-05-14T04:35:59;20.50;99.90
41722;DHT22;27407;24.142;-110.310;2023-05-14T04:38:27;20.40;99.90
41722;DHT22;27407;24.142;-110.310;2023-05-14T04:40:53;20.40;99.90
41722;DHT22;27407;24.142;-110.310;2023-05-14T04:43:20;20.30;99.90
41722;DHT22;27407;24.142;-110.310;2023-05-14T04:45:47;20.40;99.90
41722;DHT22;27407;24.142;-110.310;2023-05-14T04:48:13;20.30;99.90
41722;DHT22;27407;24.142;-110.310;2023-05-14T04:50:43;20.30;99.90
41722;DHT22;27407;24.142;-110.310;2023-05-14T04:53:13;20.50;99.90
41722;DHT22;27407;24.142;-110.310;2023-05-14T04:55:39;20.60;99.90
41722;DHT22;27407;24.142;-110.310;2023-05-14T04:58:06;20.70;99.90
41722;DHT22;27407;24.142;-110.310;2023-05-14T05:00:33;20.40;99.90
41722;DHT22;27407;24.142;-110.310;2023-05-14T05:03:00;20.50;99.90
41722;DHT22;27407;24.142;-110.310;2023-05-14T05:05:26;20.40;99.90
41722;DHT22;27407;24.142;-110.310;2023-05-14T05:07:53;20.30;99.90
41722;DHT22;27407;24.142;-110.310;2023-05-14T05:10:20;20.30;99.90
41722;DHT22;27407;24.142;-110.310;2023-05-14T05:12:47;20.30;99.90
41722;DHT22;27407;24.142;-110.310;2023-05-14T05:15:16;20.10;99.90
41722;DHT22;27407;24.142;-110.310;2023-05-14T05:17:43;20.00;99.90
41722;DHT22;27407;24.142;-110.310;2023-05-14T05:20:10;20.00;99.90
41722;DHT22;27407;24.142;-110.310;2023-05-14T05:22:37;20.00;99.90
41722;DHT22;27407;24.142;-110.310;2023-05-14T05:25:04;19.90;99.90
41722;DHT22;27407;24.142;-110.310;2023-05-14T05:27:31;19.90;99.90
41722;DHT22;27407;24.142;-110.310;2023-05-14T05:30:00;19.90;99.90
41722;DHT22;27407;24.142;-110.310;2023-05-14T05:32:27;19.80;99.90
41722;DHT22;27407;24.142;-110.310;2023-05-14T05:34:53;19.80;99.90
41722;DHT22;27407;24.142;-110.310;2023-05-14T05:37:20;19.80;99.90
41722;DHT22;27407;24.142;-110.310;2023-05-14T05:39:47;19.80;99.90
41722;DHT22;27407;24.142;-110.310;2023-05-14T05:42:14;19.60;99.90
41722;DHT22;27407;24.142;-110.310;2023-05-14T05:44:41;19.70;99.90
41722;DHT22;27407;24.142;-110.310;2023-05-14T05:47:07;19.70;99.90
41722;DHT22;27407;24.142;-110.310;2023-05-14T05:49:34;19.70;99.90
41722;DHT22;27407;24.142;-110.310;2023-05-14T05:52:05;19.60;99.90
41722;DHT22;27407;24.142;-110.310;2023-05-14T05:54:32;19.60;99.90
41722;DHT22;27407;24.142;-110.310;2023-05-14T05:56:59;19.50;99.90
41722;DHT22;27407;24.142;-110.310;2023-05-14T05:59:28;19.50;99.90
41722;DHT22;27407;24.142;-110.310;2023-05-14T06:01:55;19.40;99.90
41722;DHT22;27407;24.142;-110.310;2023-05-14T06:04:22;19.50;99.90
41722;DHT22;27407;24.142;-110.310;2023-05-14T06:06:51;19.30;99.90
41722;DHT22;27407;24.142;-110.310;2023-05-14T06:09:18;19.20;99.90
41722;DHT22;27407;24.142;-110.310;2023-05-14T06:11:45;19.20;99.90
41722;DHT22;27407;24.142;-110.310;2023-05-14T06:14:15;19.20;99.90
41722;DHT22;27407;24.142;-110.310;2023-05-14T06:16:42;19.30;99.90
41722;DHT22;27407;24.142;-110.310;2023-05-14T06:19:08;19.20;99.90
41722;DHT22;27407;24.142;-110.310;2023-05-14T06:21:36;19.30;99.90
41722;DHT22;27407;24.142;-110.310;2023-05-14T06:24:03;19.30;99.90
41722;DHT22;27407;24.142;-110.310;2023-05-14T06:26:29;19.20;99.90
41722;DHT22;27407;24.142;-110.310;2023-05-14T06:28:56;19.10;99.90
41722;DHT22;27407;24.142;-110.310;2023-05-14T06:31:23;19.20;99.90
41722;DHT22;27407;24.142;-110.310;2023-05-14T06:33:52;19.00;99.90
41722;DHT22;27407;24.142;-110.310;2023-05-14T06:36:19;19.00;99.90
41722;DHT22;27407;24.142;-110.310;2023-05-14T06:38:46;19.10;99.90
41722;DHT22;27407;24.142;-110.310;2023-05-14T06:41:12;19.10;99.90
41722;DHT22;27407;24.142;-110.310;2023-05-14T06:43:39;19.10;99.90
41722;DHT22;27407;24.142;-110.310;2023-05-14T06:46:05;19.00;99.90
41722;DHT22;27407;24.142;-110.310;2023-05-14T06:48:32;18.90;99.90
41722;DHT22;27407;24.142;-110.310;2023-05-14T06:50:59;19.00;99.90
41722;DHT22;27407;24.142;-110.310;2023-05-14T06:53:25;19.30;99.90
41722;DHT22;27407;24.142;-110.310;2023-05-14T06:55:52;19.10;99.90
41722;DHT22;27407;24.142;-110.310;2023-05-14T06:58:21;19.10;99.90
41722;DHT22;27407;24.142;-110.310;2023-05-14T07:00:48;19.10;99.90
41722;DHT22;27407;24.142;-110.310;2023-05-14T07:03:14;19.10;99.90
41722;DHT22;27407;24.142;-110.310;2023-05-14T07:05:41;19.00;99.90
41722;DHT22;27407;24.142;-110.310;2023-05-14T07:08:09;19.00;99.90
41722;DHT22;27407;24.142;-110.310;2023-05-14T07:10:36;18.90;99.90
41722;DHT22;27407;24.142;-110.310;2023-05-14T07:13:04;18.80;99.90
41722;DHT22;27407;24.142;-110.310;2023-05-14T07:15:31;18.80;99.90
41722;DHT22;27407;24.142;-110.310;2023-05-14T07:17:57;18.80;99.90
41722;DHT22;27407;24.142;-110.310;2023-05-14T07:20:24;18.60;99.90
41722;DHT22;27407;24.142;-110.310;2023-05-14T07:22:52;18.60;99.90
41722;DHT22;27407;24.142;-110.310;2023-05-14T07:25:19;18.40;99.90
41722;DHT22;27407;24.142;-110.310;2023-05-14T07:27:45;18.50;99.90
41722;DHT22;27407;24.142;-110.310;2023-05-14T07:30:12;18.40;99.90
41722;DHT22;27407;24.142;-110.310;2023-05-14T07:32:39;18.40;99.90
41722;DHT22;27407;24.142;-110.310;2023-05-14T07:35:06;18.40;99.90
41722;DHT22;27407;24.142;-110.310;2023-05-14T07:37:32;18.40;99.90
41722;DHT22;27407;24.142;-110.310;2023-05-14T07:39:59;18.30;99.90
41722;DHT22;27407;24.142;-110.310;2023-05-14T07:42:26;18.20;99.90
41722;DHT22;27407;24.142;-110.310;2023-05-14T07:44:53;18.20;99.90
41722;DHT22;27407;24.142;-110.310;2023-05-14T07:47:19;18.20;99.90
41722;DHT22;27407;24.142;-110.310;2023-05-14T07:49:46;18.10;99.90
41722;DHT22;27407;24.142;-110.310;2023-05-14T07:52:12;18.10;99.90
41722;DHT22;27407;24.142;-110.310;2023-05-14T07:54:39;18.00;99.90
41722;DHT22;27407;24.142;-110.310;2023-05-14T07:57:06;17.90;99.90
41722;DHT22;27407;24.142;-110.310;2023-05-14T07:59:32;17.80;99.90
41722;DHT22;27407;24.142;-110.310;2023-05-14T08:01:59;17.70;99.90
41722;DHT22;27407;24.142;-110.310;2023-05-14T08:04:26;17.70;99.90
41722;DHT22;27407;24.142;-110.310;2023-05-14T08:06:53;17.70;99.90
41722;DHT22;27407;24.142;-110.310;2023-05-14T08:09:21;17.70;99.90
41722;DHT22;27407;24.142;-110.310;2023-05-14T08:11:47;17.70;99.90
41722;DHT22;27407;24.142;-110.310;2023-05-14T08:14:14;17.70;99.90
41722;DHT22;27407;24.142;-110.310;2023-05-14T08:16:41;17.60;99.90
41722;DHT22;27407;24.142;-110.310;2023-05-14T08:19:12;17.50;99.90
41722;DHT22;27407;24.142;-110.310;2023-05-14T08:21:38;17.50;99.90
41722;DHT22;27407;24.142;-110.310;2023-05-14T08:24:14;17.60;99.90
41722;DHT22;27407;24.142;-110.310;2023-05-14T08:26:41;17.60;99.90
41722;DHT22;27407;24.142;-110.310;2023-05-14T08:29:08;17.50;99.90
41722;DHT22;27407;24.142;-110.310;2023-05-14T08:31:34;17.40;99.90
41722;DHT22;27407;24.142;-110.310;2023-05-14T08:34:01;17.50;99.90
41722;DHT22;27407;24.142;-110.310;2023-05-14T08:36:28;17.40;99.90
41722;DHT22;27407;24.142;-110.310;2023-05-14T08:38:55;17.50;99.90
41722;DHT22;27407;24.142;-110.310;2023-05-14T08:41:21;17.40;99.90
41722;DHT22;27407;24.142;-110.310;2023-05-14T08:46:38;17.30;99.90
41722;DHT22;27407;24.142;-110.310;2023-05-14T08:49:18;17.30;99.90
41722;DHT22;27407;24.142;-110.310;2023-05-14T08:51:47;17.40;99.90
41722;DHT22;27407;24.142;-110.310;2023-05-14T08:54:17;17.30;99.90
41722;DHT22;27407;24.142;-110.310;2023-05-14T08:56:45;17.40;99.90
41722;DHT22;27407;24.142;-110.310;2023-05-14T08:59:12;17.40;99.90
41722;DHT22;27407;24.142;-110.310;2023-05-14T09:01:46;17.40;99.90
41722;DHT22;27407;24.142;-110.310;2023-05-14T09:04:20;17.40;99.90
41722;DHT22;27407;24.142;-110.310;2023-05-14T09:06:52;17.50;99.90
41722;DHT22;27407;24.142;-110.310;2023-05-14T09:09:19;17.50;99.90
41722;DHT22;27407;24.142;-110.310;2023-05-14T09:11:51;17.30;99.90
41722;DHT22;27407;24.142;-110.310;2023-05-14T09:14:19;17.40;99.90
41722;DHT22;27407;24.142;-110.310;2023-05-14T09:16:47;17.30;99.90
41722;DHT22;27407;24.142;-110.310;2023-05-14T09:19:14;17.40;99.90
41722;DHT22;27407;24.142;-110.310;2023-05-14T09:21:44;17.40;99.90
41722;DHT22;27407;24.142;-110.310;2023-05-14T09:24:31;17.30;99.90
41722;DHT22;27407;24.142;-110.310;2023-05-14T09:26:58;17.30;99.90
41722;DHT22;27407;24.142;-110.310;2023-05-14T09:29:26;17.40;99.90
41722;DHT22;27407;24.142;-110.310;2023-05-14T09:31:53;17.20;99.90
41722;DHT22;27407;24.142;-110.310;2023-05-14T09:34:28;17.30;99.90
41722;DHT22;27407;24.142;-110.310;2023-05-14T09:37:00;17.20;99.90
41722;DHT22;27407;24.142;-110.310;2023-05-14T09:39:28;17.20;99.90
41722;DHT22;27407;24.142;-110.310;2023-05-14T09:41:55;17.20;99.90
41722;DHT22;27407;24.142;-110.310;2023-05-14T09:44:22;17.20;99.90
41722;DHT22;27407;24.142;-110.310;2023-05-14T09:46:49;17.20;99.90
41722;DHT22;27407;24.142;-110.310;2023-05-14T09:49:16;17.20;99.90
41722;DHT22;27407;24.142;-110.310;2023-05-14T09:51:44;17.20;99.90
41722;DHT22;27407;24.142;-110.310;2023-05-14T09:54:11;17.20;99.90
41722;DHT22;27407;24.142;-110.310;2023-05-14T09:56:37;17.30;99.90
41722;DHT22;27407;24.142;-110.310;2023-05-14T09:59:18;17.30;99.90
41722;DHT22;27407;24.142;-110.310;2023-05-14T10:01:44;17.20;99.90
41722;DHT22;27407;24.142;-110.310;2023-05-14T10:04:11;17.20;99.90
41722;DHT22;27407;24.142;-110.310;2023-05-14T10:06:39;17.20;99.90
41722;DHT22;27407;24.142;-110.310;2023-05-14T10:09:12;17.20;99.90
41722;DHT22;27407;24.142;-110.310;2023-05-14T10:11:43;17.30;99.90
41722;DHT22;27407;24.142;-110.310;2023-05-14T10:14:28;17.20;99.90
41722;DHT22;27407;24.142;-110.310;2023-05-14T10:16:58;17.30;99.90
41722;DHT22;27407;24.142;-110.310;2023-05-14T10:19:27;17.20;99.90
41722;DHT22;27407;24.142;-110.310;2023-05-14T10:22:06;17.10;99.90
41722;DHT22;27407;24.142;-110.310;2023-05-14T10:24:33;17.20;99.90
41722;DHT22;27407;24.142;-110.310;2023-05-14T10:27:01;17.30;99.90
41722;DHT22;27407;24.142;-110.310;2023-05-14T10:29:33;17.30;99.90
41722;DHT22;27407;24.142;-110.310;2023-05-14T10:32:04;17.30;99.90
41722;DHT22;27407;24.142;-110.310;2023-05-14T10:34:42;17.20;99.90
41722;DHT22;27407;24.142;-110.310;2023-05-14T10:37:17;17.20;99.90
41722;DHT22;27407;24.142;-110.310;2023-05-14T10:39:52;17.20;99.90
41722;DHT22;27407;24.142;-110.310;2023-05-14T10:42:34;17.40;99.90
41722;DHT22;27407;24.142;-110.310;2023-05-14T10:45:14;17.30;99.90
41722;DHT22;27407;24.142;-110.310;2023-05-14T10:47:45;17.30;99.90
41722;DHT22;27407;24.142;-110.310;2023-05-14T10:50:14;17.20;99.90
41722;DHT22;27407;24.142;-110.310;2023-05-14T10:52:44;17.20;99.90
41722;DHT22;27407;24.142;-110.310;2023-05-14T10:55:15;17.30;99.90
41722;DHT22;27407;24.142;-110.310;2023-05-14T10:57:43;17.30;99.90
41722;DHT22;27407;24.142;-110.310;2023-05-14T11:00:12;17.30;99.90
41722;DHT22;27407;24.142;-110.310;2023-05-14T11:02:41;17.20;99.90
41722;DHT22;27407;24.142;-110.310;2023-05-14T11:05:13;17.10;99.90
41722;DHT22;27407;24.142;-110.310;2023-05-14T11:07:47;17.10;99.90
41722;DHT22;27407;24.142;-110.310;2023-05-14T11:10:18;17.00;99.90
41722;DHT22;27407;24.142;-110.310;2023-05-14T11:12:47;17.10;99.90
41722;DHT22;27407;24.142;-110.310;2023-05-14T11:15:16;17.10;99.90
41722;DHT22;27407;24.142;-110.310;2023-05-14T11:17:44;17.20;99.90
41722;DHT22;27407;24.142;-110.310;2023-05-14T11:20:12;17.10;99.90
41722;DHT22;27407;24.142;-110.310;2023-05-14T11:22:40;17.10;99.90
41722;DHT22;27407;24.142;-110.310;2023-05-14T11:25:08;17.10;99.90
41722;DHT22;27407;24.142;-110.310;2023-05-14T11:27:37;17.10;99.90
41722;DHT22;27407;24.142;-110.310;2023-05-14T11:30:04;16.90;99.90
41722;DHT22;27407;24.142;-110.310;2023-05-14T11:32:32;16.90;99.90
41722;DHT22;27407;24.142;-110.310;2023-05-14T11:34:58;16.80;99.90
41722;DHT22;27407;24.142;-110.310;2023-05-14T11:37:25;16.70;99.90
41722;DHT22;27407;24.142;-110.310;2023-05-14T11:39:54;16.70;99.90
41722;DHT22;27407;24.142;-110.310;2023-05-14T11:42:21;16.60;99.90
41722;DHT22;27407;24.142;-110.310;2023-05-14T11:44:50;16.30;99.90
41722;DHT22;27407;24.142;-110.310;2023-05-14T11:47:20;16.20;99.90
41722;DHT22;27407;24.142;-110.310;2023-05-14T11:49:47;16.10;99.90
41722;DHT22;27407;24.142;-110.310;2023-05-14T11:52:15;16.20;99.90
41722;DHT22;27407;24.142;-110.310;2023-05-14T11:54:44;16.40;99.90
41722;DHT22;27407;24.142;-110.310;2023-05-14T11:57:19;16.40;99.90
41722;DHT22;27407;24.142;-110.310;2023-05-14T11:59:47;16.70;99.90
41722;DHT22;27407;24.142;-110.310;2023-05-14T12:02:16;16.80;99.90
41722;DHT22;27407;24.142;-110.310;2023-05-14T12:04:49;16.70;99.90
41722;DHT22;27407;24.142;-110.310;2023-05-14T12:07:17;16.60;99.90
41722;DHT22;27407;24.142;-110.310;2023-05-14T12:09:45;16.60;99.90
41722;DHT22;27407;24.142;-110.310;2023-05-14T12:12:20;16.70;99.90
41722;DHT22;27407;24.142;-110.310;2023-05-14T12:14:48;16.80;99.90
41722;DHT22;27407;24.142;-110.310;2023-05-14T12:17:22;16.70;99.90
41722;DHT22;27407;24.142;-110.310;2023-05-14T12:19:50;16.80;99.90
41722;DHT22;27407;24.142;-110.310;2023-05-14T12:22:19;16.80;99.90
41722;DHT22;27407;24.142;-110.310;2023-05-14T12:24:54;16.80;99.90
41722;DHT22;27407;24.142;-110.310;2023-05-14T12:27:22;16.70;99.90
41722;DHT22;27407;24.142;-110.310;2023-05-14T12:30:00;16.80;99.90
41722;DHT22;27407;24.142;-110.310;2023-05-14T12:32:31;16.70;99.90
41722;DHT22;27407;24.142;-110.310;2023-05-14T12:34:58;16.80;99.90
41722;DHT22;27407;24.142;-110.310;2023-05-14T12:37:26;16.80;99.90
41722;DHT22;27407;24.142;-110.310;2023-05-14T12:39:53;16.70;99.90
41722;DHT22;27407;24.142;-110.310;2023-05-14T12:42:20;16.60;99.90
41722;DHT22;27407;24.142;-110.310;2023-05-14T12:44:47;16.60;99.90
41722;DHT22;27407;24.142;-110.310;2023-05-14T12:47:14;16.60;99.90
41722;DHT22;27407;24.142;-110.310;2023-05-14T12:49:41;16.60;99.90
41722;DHT22;27407;24.142;-110.310;2023-05-14T12:52:08;16.50;99.90
41722;DHT22;27407;24.142;-110.310;2023-05-14T12:54:35;16.30;99.90
41722;DHT22;27407;24.142;-110.310;2023-05-14T12:57:11;16.40;99.90
41722;DHT22;27407;24.142;-110.310;2023-05-14T12:59:51;16.40;99.90
41722;DHT22;27407;24.142;-110.310;2023-05-14T13:02:17;16.50;99.90
41722;DHT22;27407;24.142;-110.310;2023-05-14T13:04:44;16.60;99.90
41722;DHT22;27407;24.142;-110.310;2023-05-14T13:07:11;16.60;99.90
41722;DHT22;27407;24.142;-110.310;2023-05-14T13:09:38;16.70;99.90
41722;DHT22;27407;24.142;-110.310;2023-05-14T13:12:05;16.70;99.90
41722;DHT22;27407;24.142;-110.310;2023-05-14T13:14:32;16.60;99.90
41722;DHT22;27407;24.142;-110.310;2023-05-14T13:16:58;16.60;99.90
41722;DHT22;27407;24.142;-110.310;2023-05-14T13:19:25;16.60;99.90
41722;DHT22;27407;24.142;-110.310;2023-05-14T13:21:52;16.70;99.90
41722;DHT22;27407;24.142;-110.310;2023-05-14T13:24:19;16.80;99.90
41722;DHT22;27407;24.142;-110.310;2023-05-14T13:26:45;16.80;99.90
41722;DHT22;27407;24.142;-110.310;2023-05-14T13:29:12;17.10;99.90
41722;DHT22;27407;24.142;-110.310;2023-05-14T13:31:39;17.00;99.90
41722;DHT22;27407;24.142;-110.310;2023-05-14T13:34:05;17.00;99.90
41722;DHT22;27407;24.142;-110.310;2023-05-14T13:36:33;17.20;99.90
41722;DHT22;27407;24.142;-110.310;2023-05-14T13:39:05;17.20;99.90
41722;DHT22;27407;24.142;-110.310;2023-05-14T13:41:32;17.30;99.90
41722;DHT22;27407;24.142;-110.310;2023-05-14T13:44:00;17.30;99.90
41722;DHT22;27407;24.142;-110.310;2023-05-14T13:46:27;17.40;99.90
41722;DHT22;27407;24.142;-110.310;2023-05-14T13:48:54;17.60;99.90
41722;DHT22;27407;24.142;-110.310;2023-05-14T13:51:22;17.40;99.90
41722;DHT22;27407;24.142;-110.310;2023-05-14T13:53:49;17.50;99.90
41722;DHT22;27407;24.142;-110.310;2023-05-14T13:56:15;17.70;99.90
41722;DHT22;27407;24.142;-110.310;2023-05-14T13:58:42;17.90;99.90
41722;DHT22;27407;24.142;-110.310;2023-05-14T14:01:09;17.70;99.90
41722;DHT22;27407;24.142;-110.310;2023-05-14T14:03:35;17.70;99.90
41722;DHT22;27407;24.142;-110.310;2023-05-14T14:06:02;17.60;99.90
41722;DHT22;27407;24.142;-110.310;2023-05-14T14:08:28;17.70;99.90
41722;DHT22;27407;24.142;-110.310;2023-05-14T14:10:56;17.80;99.90
41722;DHT22;27407;24.142;-110.310;2023-05-14T14:13:22;17.90;99.90
41722;DHT22;27407;24.142;-110.310;2023-05-14T14:15:49;17.90;99.90
41722;DHT22;27407;24.142;-110.310;2023-05-14T14:18:18;17.90;99.90
41722;DHT22;27407;24.142;-110.310;2023-05-14T14:20:45;18.00;99.90
41722;DHT22;27407;24.142;-110.310;2023-05-14T14:23:12;18.20;99.90
41722;DHT22;27407;24.142;-110.310;2023-05-14T14:25:38;18.30;99.90
41722;DHT22;27407;24.142;-110.310;2023-05-14T14:28:05;18.40;99.90
41722;DHT22;27407;24.142;-110.310;2023-05-14T14:30:32;18.50;99.90
41722;DHT22;27407;24.142;-110.310;2023-05-14T14:32:59;18.60;99.90
41722;DHT22;27407;24.142;-110.310;2023-05-14T14:35:26;18.60;99.90
41722;DHT22;27407;24.142;-110.310;2023-05-14T14:37:53;18.70;99.90
41722;DHT22;27407;24.142;-110.310;2023-05-14T14:40:20;18.70;99.90
41722;DHT22;27407;24.142;-110.310;2023-05-14T14:42:48;18.70;99.90
41722;DHT22;27407;24.142;-110.310;2023-05-14T14:45:15;19.00;99.90
41722;DHT22;27407;24.142;-110.310;2023-05-14T14:47:44;19.10;99.90
41722;DHT22;27407;24.142;-110.310;2023-05-14T14:50:13;19.00;99.90
41722;DHT22;27407;24.142;-110.310;2023-05-14T14:52:41;19.20;99.90
41722;DHT22;27407;24.142;-110.310;2023-05-14T14:55:12;19.50;99.90
41722;DHT22;27407;24.142;-110.310;2023-05-14T14:57:39;19.30;99.90
41722;DHT22;27407;24.142;-110.310;2023-05-14T15:00:06;19.40;99.90
41722;DHT22;27407;24.142;-110.310;2023-05-14T15:02:34;19.40;99.90
41722;DHT22;27407;24.142;-110.310;2023-05-14T15:05:03;19.70;99.90